sensor_id;sensor_type;location;lat;lon;timestamp;pressure;altitude;pressure_sealevel;temperature;humidity
41690;BME280;27372;42.658;23.256;2023-12-20T00:00:56;94121.84;;;1.95;95.76
41690;BME280;27372;42.658;23.256;2023-12-20T00:03:22;94119.38;;;2.01;94.55
41690;BME280;27372;42.658;23.256;2023-12-20T00:05:49;94128.50;;;2.12;94.44
41690;BME280;27372;42.658;23.256;2023-12-20T00:08:14;94122.88;;;2.09;94.05
41690;BME280;27372;42.658;23.256;2023-12-20T00:10:40;94115.00;;;2.17;93.07
41690;BME280;27372;42.658;23.256;2023-12-20T00:13:05;94110.97;;;1.99;93.78
41690;BME280;27372;42.658;23.256;2023-12-20T00:15:32;94105.75;;;1.84;94.06
41690;BME280;27372;42.658;23.256;2023-12-20T00:17:57;94104.88;;;1.46;95.65
41690;BME280;27372;42.658;23.256;2023-12-20T00:20:23;94103.38;;;1.51;95.86
41690;BME280;27372;42.658;23.256;2023-12-20T00:22:48;94085.72;;;1.32;97.23
41690;BME280;27372;42.658;23.256;2023-12-20T00:25:13;94089.63;;;1.51;97.19
41690;BME280;27372;42.658;23.256;2023-12-20T00:27:39;94083.69;;;1.65;96.34
41690;BME280;27372;42.658;23.256;2023-12-20T00:30:05;94079.97;;;1.45;95.96
41690;BME280;27372;42.658;23.256;2023-12-20T00:32:31;94069.25;;;0.93;98.78
41690;BME280;27372;42.658;23.256;2023-12-20T00:34:56;94067.47;;;1.25;98.64
41690;BME280;27372;42.658;23.256;2023-12-20T00:37:21;94072.50;;;1.50;97.16
41690;BME280;27372;42.658;23.256;2023-12-20T00:39:47;94066.13;;;1.76;95.98
41690;BME280;27372;42.658;23.256;2023-12-20T00:42:13;94063.44;;;1.92;94.80
41690;BME280;27372;42.658;23.256;2023-12-20T00:44:38;94063.78;;;2.04;93.11
41690;BME280;27372;42.658;23.256;2023-12-20T00:47:04;94058.09;;;2.09;92.27
41690;BME280;27372;42.658;23.256;2023-12-20T00:49:29;94066.31;;;1.74;94.14
41690;BME280;27372;42.658;23.256;2023-12-20T00:51:54;94064.94;;;1.63;95.03
41690;BME280;27372;42.658;23.256;2023-12-20T00:54:20;94059.75;;;1.40;96.49
41690;BME280;27372;42.658;23.256;2023-12-20T00:56:45;94055.09;;;1.12;99.07
41690;BME280;27372;42.658;23.256;2023-12-20T00:59:11;94055.34;;;1.26;100.00
41690;BME280;27372;42.658;23.256;2023-12-20T01:01:36;94054.44;;;1.42;100.00
41690;BME280;27372;42.658;23.256;2023-12-20T01:04:01;94049.41;;;1.40;100.00
41690;BME280;27372;42.658;23.256;2023-12-20T01:06:27;94049.13;;;1.58;100.00
41690;BME280;27372;42.658;23.256;2023-12-20T01:08:52;94039.34;;;1.68;99.20
41690;BME280;27372;42.658;23.256;2023-12-20T01:11:17;94040.94;;;1.69;99.73
41690;BME280;27372;42.658;23.256;2023-12-20T01:13:43;94036.53;;;1.93;97.34
41690;BME280;27372;42.658;23.256;2023-12-20T01:16:12;94027.16;;;1.92;95.71
41690;BME280;27372;42.658;23.256;2023-12-20T01:18:37;94037.00;;;1.97;94.16
41690;BME280;27372;42.658;23.256;2023-12-20T01:21:04;94030.13;;;2.04;93.45
41690;BME280;27372;42.658;23.256;2023-12-20T01:23:30;94032.16;;;2.09;92.97
41690;BME280;27372;42.658;23.256;2023-12-20T01:25:55;94025.00;;;1.96;92.94
41690;BME280;27372;42.658;23.256;2023-12-20T01:28:21;94017.72;;;1.38;95.21
41690;BME280;27372;42.658;23.256;2023-12-20T01:30:46;94019.50;;;1.14;97.74
41690;BME280;27372;42.658;23.256;2023-12-20T01:33:12;94014.56;;;1.04;98.85
41690;BME280;27372;42.658;23.256;2023-12-20T01:35:37;94008.91;;;1.24;98.43
41690;BME280;27372;42.658;23.256;2023-12-20T01:38:03;94000.59;;;1.14;100.00
41690;BME280;27372;42.658;23.256;2023-12-20T01:40:28;94010.31;;;1.35;100.00
41690;BME280;27372;42.658;23.256;2023-12-20T01:43:00;94007.47;;;1.45;100.00
41690;BME280;27372;42.658;23.256;2023-12-20T01:45:26;93988.00;;;1.34;100.00
41690;BME280;27372;42.658;23.256;2023-12-20T01:47:52;93994.41;;;1.61;100.00
41690;BME280;27372;42.658;23.256;2023-12-20T01:50:18;93985.03;;;1.60;100.00
41690;BME280;27372;42.658;23.256;2023-12-20T01:52:44;93986.31;;;1.41;100.00
41690;BME280;27372;42.658;23.256;2023-12-20T01:55:10;93985.09;;;1.52;100.00
41690;BME280;27372;42.658;23.256;2023-12-20T01:57:42;93971.97;;;1.53;100.00
41690;BME280;27372;42.658;23.256;2023-12-20T02:00:09;93970.16;;;1.77;100.00
41690;BME280;27372;42.658;23.256;2023-12-20T02:02:37;93972.75;;;1.92;100.00
41690;BME280;27372;42.658;23.256;2023-12-20T02:05:05;93982.09;;;1.78;99.77
41690;BME280;27372;42.658;23.256;2023-12-20T02:07:30;93966.31;;;1.35;100.00
41690;BME280;27372;42.658;23.256;2023-12-20T02:09:56;93964.41;;;0.82;100.00
41690;BME280;27372;42.658;23.256;2023-12-20T02:12:22;93974.47;;;0.77;100.00
41690;BME280;27372;42.658;23.256;2023-12-20T02:14:48;93970.34;;;0.91;100.00
41690;BME280;27372;42.658;23.256;2023-12-20T02:17:15;93955.69;;;0.83;100.00
41690;BME280;27372;42.658;23.256;2023-12-20T02:19:40;93961.81;;;1.29;100.00
41690;BME280;27372;42.658;23.256;2023-12-20T02:22:09;93959.38;;;1.50;99.58
41690;BME280;27372;42.658;23.256;2023-12-20T02:24:35;93949.31;;;1.55;99.28
41690;BME280;27372;42.658;23.256;2023-12-20T02:27:01;93946.81;;;1.24;99.22
41690;BME280;27372;42.658;23.256;2023-12-20T02:29:26;93945.94;;;0.93;100.00
41690;BME280;27372;42.658;23.256;2023-12-20T02:31:52;93930.44;;;0.62;100.00
41690;BME280;27372;42.658;23.256;2023-12-20T02:34:17;93932.06;;;1.10;100.00
41690;BME280;27372;42.658;23.256;2023-12-20T02:36:43;93931.72;;;0.89;100.00
41690;BME280;27372;42.658;23.256;2023-12-20T02:39:08;93933.38;;;1.05;100.00
41690;BME280;27372;42.658;23.256;2023-12-20T02:41:34;93924.81;;;0.82;100.00
41690;BME280;27372;42.658;23.256;2023-12-20T02:44:00;93930.63;;;0.84;100.00
41690;BME280;27372;42.658;23.256;2023-12-20T02:46:25;93922.34;;;1.12;100.00
41690;BME280;27372;42.658;23.256;2023-12-20T02:48:51;93922.84;;;1.30;99.53
41690;BME280;27372;42.658;23.256;2023-12-20T02:51:16;93924.91;;;1.35;99.29
41690;BME280;27372;42.658;23.256;2023-12-20T02:53:41;93911.97;;;1.35;98.64
41690;BME280;27372;42.658;23.256;2023-12-20T02:56:07;93925.81;;;1.57;96.95
41690;BME280;27372;42.658;23.256;2023-12-20T02:58:32;93927.63;;;1.57;95.92
41690;BME280;27372;42.658;23.256;2023-12-20T03:00:57;93925.75;;;1.65;95.23
41690;BME280;27372;42.658;23.256;2023-12-20T03:03:23;93921.88;;;1.08;97.67
41690;BME280;27372;42.658;23.256;2023-12-20T03:05:48;93914.28;;;1.45;96.67
41690;BME280;27372;42.658;23.256;2023-12-20T03:08:14;93914.94;;;1.62;96.46
41690;BME280;27372;42.658;23.256;2023-12-20T03:10:39;93915.81;;;1.54;96.17
41690;BME280;27372;42.658;23.256;2023-12-20T03:13:04;93914.13;;;1.46;96.82
41690;BME280;27372;42.658;23.256;2023-12-20T03:15:30;93917.13;;;1.35;97.60
41690;BME280;27372;42.658;23.256;2023-12-20T03:17:55;93912.25;;;0.79;100.00
41690;BME280;27372;42.658;23.256;2023-12-20T03:20:21;93912.69;;;0.82;100.00
41690;BME280;27372;42.658;23.256;2023-12-20T03:22:46;93913.34;;;0.84;100.00
41690;BME280;27372;42.658;23.256;2023-12-20T03:25:11;93913.97;;;1.10;100.00
41690;BME280;27372;42.658;23.256;2023-12-20T03:27:37;93903.22;;;1.36;100.00
41690;BME280;27372;42.658;23.256;2023-12-20T03:30:06;93905.00;;;0.97;100.00
41690;BME280;27372;42.658;23.256;2023-12-20T03:32:31;93893.91;;;1.12;100.00
41690;BME280;27372;42.658;23.256;2023-12-20T03:34:57;93903.91;;;1.30;100.00
41690;BME280;27372;42.658;23.256;2023-12-20T03:37:23;93893.03;;;1.34;98.91
41690;BME280;27372;42.658;23.256;2023-12-20T03:39:48;93893.41;;;1.31;98.21
41690;BME280;27372;42.658;23.256;2023-12-20T03:42:14;93896.19;;;1.06;98.06
41690;BME280;27372;42.658;23.256;2023-12-20T03:44:39;93894.56;;;0.36;100.00
41690;BME280;27372;42.658;23.256;2023-12-20T03:47:07;93896.34;;;0.90;100.00
41690;BME280;27372;42.658;23.256;2023-12-20T03:49:32;93906.94;;;0.95;99.83
41690;BME280;27372;42.658;23.256;2023-12-20T03:51:58;93895.19;;;0.69;99.97
41690;BME280;27372;42.658;23.256;2023-12-20T03:54:24;93908.56;;;0.73;100.00
41690;BME280;27372;42.658;23.256;2023-12-20T03:56:49;93893.59;;;1.06;99.08
41690;BME280;27372;42.658;23.256;2023-12-20T03:59:15;93889.53;;;0.89;98.46
41690;BME280;27372;42.658;23.256;2023-12-20T04:01:44;93888.78;;;1.03;97.80
41690;BME280;27372;42.658;23.256;2023-12-20T04:04:10;93890.63;;;0.71;98.40
41690;BME280;27372;42.658;23.256;2023-12-20T04:06:35;93878.50;;;0.49;100.00
41690;BME280;27372;42.658;23.256;2023-12-20T04:09:01;93879.47;;;0.24;100.00
41690;BME280;27372;42.658;23.256;2023-12-20T04:11:26;93873.19;;;0.19;100.00
41690;BME280;27372;42.658;23.256;2023-12-20T04:13:51;93870.41;;;-0.03;100.00
41690;BME280;27372;42.658;23.256;2023-12-20T04:16:17;93859.25;;;-0.04;100.00
41690;BME280;27372;42.658;23.256;2023-12-20T04:18:42;93865.88;;;0.54;100.00
41690;BME280;27372;42.658;23.256;2023-12-20T04:21:07;93859.44;;;0.73;100.00
41690;BME280;27372;42.658;23.256;2023-12-20T04:23:33;93865.41;;;0.73;100.00
41690;BME280;27372;42.658;23.256;2023-12-20T04:25:58;93865.63;;;0.87;99.90
41690;BME280;27372;42.658;23.256;2023-12-20T04:28:24;93857.31;;;0.76;100.00
41690;BME280;27372;42.658;23.256;2023-12-20T04:30:49;93861.97;;;0.58;100.00
41690;BME280;27372;42.658;23.256;2023-12-20T04:33:14;93857.56;;;0.82;100.00
41690;BME280;27372;42.658;23.256;2023-12-20T04:35:40;93847.97;;;0.90;100.00
41690;BME280;27372;42.658;23.256;2023-12-20T04:38:06;93840.88;;;1.07;100.00
41690;BME280;27372;42.658;23.256;2023-12-20T04:40:32;93850.59;;;1.05;99.44
41690;BME280;27372;42.658;23.256;2023-12-20T04:42:57;93840.63;;;1.17;97.56
41690;BME280;27372;42.658;23.256;2023-12-20T04:45:22;93848.03;;;1.20;95.27
41690;BME280;27372;42.658;23.256;2023-12-20T04:47:50;93849.53;;;1.15;95.55
41690;BME280;27372;42.658;23.256;2023-12-20T04:50:15;93842.94;;;1.12;95.48
41690;BME280;27372;42.658;23.256;2023-12-20T04:52:41;93844.34;;;1.00;96.05
41690;BME280;27372;42.658;23.256;2023-12-20T04:55:07;93846.94;;;1.00;96.18
41690;BME280;27372;42.658;23.256;2023-12-20T04:57:34;93841.50;;;0.95;96.26
41690;BME280;27372;42.658;23.256;2023-12-20T04:59:59;93836.47;;;0.93;95.59
41690;BME280;27372;42.658;23.256;2023-12-20T05:02:25;93839.09;;;1.08;95.56
41690;BME280;27372;42.658;23.256;2023-12-20T05:04:50;93839.16;;;1.00;95.46
41690;BME280;27372;42.658;23.256;2023-12-20T05:07:16;93841.69;;;1.08;94.75
41690;BME280;27372;42.658;23.256;2023-12-20T05:09:41;93829.38;;;1.10;94.66
41690;BME280;27372;42.658;23.256;2023-12-20T05:12:07;93826.06;;;0.86;94.85
41690;BME280;27372;42.658;23.256;2023-12-20T05:14:33;93835.78;;;0.99;93.85
41690;BME280;27372;42.658;23.256;2023-12-20T05:16:58;93831.72;;;0.82;95.69
41690;BME280;27372;42.658;23.256;2023-12-20T05:19:24;93819.81;;;0.96;94.56
41690;BME280;27372;42.658;23.256;2023-12-20T05:21:50;93822.41;;;0.96;94.61
41690;BME280;27372;42.658;23.256;2023-12-20T05:24:15;93821.66;;;0.87;95.48
41690;BME280;27372;42.658;23.256;2023-12-20T05:26:41;93825.25;;;1.01;95.71
41690;BME280;27372;42.658;23.256;2023-12-20T05:29:06;93823.91;;;0.90;95.62
41690;BME280;27372;42.658;23.256;2023-12-20T05:31:32;93822.38;;;0.34;96.56
41690;BME280;27372;42.658;23.256;2023-12-20T05:33:57;93807.13;;;-0.07;100.00
41690;BME280;27372;42.658;23.256;2023-12-20T05:36:23;93799.72;;;0.21;100.00
41690;BME280;27372;42.658;23.256;2023-12-20T05:38:49;93805.59;;;0.07;100.00
41690;BME280;27372;42.658;23.256;2023-12-20T05:41:14;93801.53;;;0.12;100.00
41690;BME280;27372;42.658;23.256;2023-12-20T05:43:39;93800.22;;;0.40;99.39
41690;BME280;27372;42.658;23.256;2023-12-20T05:46:05;93808.03;;;0.55;98.30
41690;BME280;27372;42.658;23.256;2023-12-20T05:48:30;93807.47;;;0.44;97.78
41690;BME280;27372;42.658;23.256;2023-12-20T05:50:56;93802.59;;;0.50;96.97
41690;BME280;27372;42.658;23.256;2023-12-20T05:53:21;93800.00;;;0.50;95.82
41690;BME280;27372;42.658;23.256;2023-12-20T05:55:46;93795.84;;;-0.06;96.15
41690;BME280;27372;42.658;23.256;2023-12-20T05:58:12;93793.13;;;0.19;96.08
41690;BME280;27372;42.658;23.256;2023-12-20T06:00:38;93791.44;;;0.26;95.94
41690;BME280;27372;42.658;23.256;2023-12-20T06:03:03;93796.00;;;-0.08;96.11
41690;BME280;27372;42.658;23.256;2023-12-20T06:05:30;93786.91;;;0.28;95.35
41690;BME280;27372;42.658;23.256;2023-12-20T06:07:56;93783.44;;;-0.42;98.81
41690;BME280;27372;42.658;23.256;2023-12-20T06:10:26;93787.44;;;-0.80;100.00
41690;BME280;27372;42.658;23.256;2023-12-20T06:12:52;93785.94;;;-0.26;100.00
41690;BME280;27372;42.658;23.256;2023-12-20T06:15:17;93804.88;;;-0.02;100.00
41690;BME280;27372;42.658;23.256;2023-12-20T06:17:43;93799.84;;;-0.04;100.00
41690;BME280;27372;42.658;23.256;2023-12-20T06:20:09;93799.25;;;0.18;100.00
41690;BME280;27372;42.658;23.256;2023-12-20T06:25:37;93794.13;;;0.56;96.41
41690;BME280;27372;42.658;23.256;2023-12-20T06:28:03;93806.31;;;0.47;95.75
41690;BME280;27372;42.658;23.256;2023-12-20T06:30:28;93803.03;;;0.53;95.07
41690;BME280;27372;42.658;23.256;2023-12-20T06:32:54;93803.97;;;0.37;95.88
41690;BME280;27372;42.658;23.256;2023-12-20T06:35:20;93802.94;;;0.46;95.81
41690;BME280;27372;42.658;23.256;2023-12-20T06:37:45;93794.91;;;0.56;94.78
41690;BME280;27372;42.658;23.256;2023-12-20T06:40:11;93787.28;;;0.63;92.90
41690;BME280;27372;42.658;23.256;2023-12-20T06:42:37;93795.50;;;0.43;94.96
41690;BME280;27372;42.658;23.256;2023-12-20T06:45:03;93777.09;;;0.46;96.76
41690;BME280;27372;42.658;23.256;2023-12-20T06:47:28;93779.41;;;0.80;94.66
41690;BME280;27372;42.658;23.256;2023-12-20T06:49:54;93777.94;;;0.77;93.23
41690;BME280;27372;42.658;23.256;2023-12-20T06:52:19;93780.66;;;0.99;91.67
41690;BME280;27372;42.658;23.256;2023-12-20T06:54:44;93777.91;;;1.00;91.90
41690;BME280;27372;42.658;23.256;2023-12-20T06:57:10;93779.94;;;0.75;92.85
41690;BME280;27372;42.658;23.256;2023-12-20T06:59:40;93777.63;;;0.95;91.46
41690;BME280;27372;42.658;23.256;2023-12-20T07:02:05;93761.22;;;1.03;90.88
41690;BME280;27372;42.658;23.256;2023-12-20T07:04:31;93771.22;;;1.21;89.33
41690;BME280;27372;42.658;23.256;2023-12-20T07:06:56;93757.28;;;0.92;90.49
41690;BME280;27372;42.658;23.256;2023-12-20T07:09:25;93757.38;;;0.45;95.74
41690;BME280;27372;42.658;23.256;2023-12-20T07:11:51;93755.72;;;0.68;98.43
41690;BME280;27372;42.658;23.256;2023-12-20T07:14:16;93754.88;;;1.05;97.73
41690;BME280;27372;42.658;23.256;2023-12-20T07:16:42;93759.06;;;1.51;94.71
41690;BME280;27372;42.658;23.256;2023-12-20T07:19:07;93766.88;;;1.88;93.07
41690;BME280;27372;42.658;23.256;2023-12-20T07:21:33;93748.06;;;2.01;91.83
41690;BME280;27372;42.658;23.256;2023-12-20T07:23:58;93760.06;;;2.24;89.84
41690;BME280;27372;42.658;23.256;2023-12-20T07:26:23;93752.94;;;2.11;90.08
41690;BME280;27372;42.658;23.256;2023-12-20T07:31:18;93743.31;;;2.26;87.65
41690;BME280;27372;42.658;23.256;2023-12-20T07:48:00;93750.34;;;1.89;87.21
41690;BME280;27372;42.658;23.256;2023-12-20T07:53:53;93749.13;;;2.28;86.89
41690;BME280;27372;42.658;23.256;2023-12-20T07:56:21;93746.28;;;2.45;86.31
41690;BME280;27372;42.658;23.256;2023-12-20T07:59:06;93745.53;;;2.51;86.03
41690;BME280;27372;42.658;23.256;2023-12-20T08:01:32;93746.06;;;2.68;85.41
41690;BME280;27372;42.658;23.256;2023-12-20T08:04:22;93730.31;;;2.70;84.69
41690;BME280;27372;42.658;23.256;2023-12-20T08:06:48;93728.78;;;3.10;83.79
41690;BME280;27372;42.658;23.256;2023-12-20T08:09:13;93738.28;;;3.32;83.60
41690;BME280;27372;42.658;23.256;2023-12-20T08:11:39;93747.81;;;3.60;82.96
41690;BME280;27372;42.658;23.256;2023-12-20T08:14:04;93739.31;;;3.86;80.99
41690;BME280;27372;42.658;23.256;2023-12-20T08:19:37;93722.22;;;4.52;78.72
41690;BME280;27372;42.658;23.256;2023-12-20T08:22:02;93717.81;;;4.93;76.12
41690;BME280;27372;42.658;23.256;2023-12-20T08:24:29;93722.28;;;5.44;74.07
41690;BME280;27372;42.658;23.256;2023-12-20T08:26:55;93719.38;;;5.07;74.31
41690;BME280;27372;42.658;23.256;2023-12-20T08:29:20;93721.19;;;5.00;74.68
41690;BME280;27372;42.658;23.256;2023-12-20T08:31:46;93726.97;;;4.08;76.94
41690;BME280;27372;42.658;23.256;2023-12-20T08:34:11;93709.56;;;4.09;79.97
41690;BME280;27372;42.658;23.256;2023-12-20T08:36:39;93707.75;;;4.02;79.99
41690;BME280;27372;42.658;23.256;2023-12-20T08:39:04;93705.94;;;3.96;81.52
41690;BME280;27372;42.658;23.256;2023-12-20T08:41:32;93698.78;;;4.25;80.51
41690;BME280;27372;42.658;23.256;2023-12-20T08:43:58;93696.19;;;4.05;81.99
41690;BME280;27372;42.658;23.256;2023-12-20T08:46:23;93684.34;;;3.89;81.63
41690;BME280;27372;42.658;23.256;2023-12-20T08:48:48;93695.75;;;3.95;83.26
41690;BME280;27372;42.658;23.256;2023-12-20T08:51:14;93694.19;;;4.00;83.11
41690;BME280;27372;42.658;23.256;2023-12-20T08:53:39;93688.97;;;3.94;83.78
41690;BME280;27372;42.658;23.256;2023-12-20T08:56:05;93690.19;;;4.11;83.16
41690;BME280;27372;42.658;23.256;2023-12-20T08:58:30;93681.56;;;3.97;83.43
41690;BME280;27372;42.658;23.256;2023-12-20T09:00:56;93684.34;;;4.02;84.49
41690;BME280;27372;42.658;23.256;2023-12-20T09:03:22;93670.72;;;3.73;84.25
41690;BME280;27372;42.658;23.256;2023-12-20T09:05:47;93669.38;;;3.98;84.39
41690;BME280;27372;42.658;23.256;2023-12-20T09:08:13;93657.41;;;3.97;84.23
41690;BME280;27372;42.658;23.256;2023-12-20T09:10:38;93658.97;;;3.91;84.05
41690;BME280;27372;42.658;23.256;2023-12-20T09:13:04;93644.13;;;3.65;85.30
41690;BME280;27372;42.658;23.256;2023-12-20T09:15:29;93637.69;;;3.54;86.00
41690;BME280;27372;42.658;23.256;2023-12-20T09:17:55;93613.16;;;3.01;88.49
41690;BME280;27372;42.658;23.256;2023-12-20T09:20:21;93618.31;;;3.56;87.88
41690;BME280;27372;42.658;23.256;2023-12-20T09:22:48;93607.91;;;3.43;88.75
41690;BME280;27372;42.658;23.256;2023-12-20T09:25:14;93604.97;;;3.73;87.87
41690;BME280;27372;42.658;23.256;2023-12-20T09:27:41;93594.78;;;3.78;86.38
41690;BME280;27372;42.658;23.256;2023-12-20T09:30:07;93598.22;;;3.85;86.03
41690;BME280;27372;42.658;23.256;2023-12-20T09:32:32;93595.78;;;4.17;85.87
41690;BME280;27372;42.658;23.256;2023-12-20T09:34:58;93596.22;;;4.01;84.45
41690;BME280;27372;42.658;23.256;2023-12-20T09:37:27;93589.81;;;4.10;85.48
41690;BME280;27372;42.658;23.256;2023-12-20T09:39:53;93584.03;;;3.95;85.22
41690;BME280;27372;42.658;23.256;2023-12-20T09:42:28;93570.41;;;4.19;85.43
41690;BME280;27372;42.658;23.256;2023-12-20T09:44:55;93569.97;;;4.43;83.82
41690;BME280;27372;42.658;23.256;2023-12-20T09:47:22;93568.22;;;4.10;83.99
41690;BME280;27372;42.658;23.256;2023-12-20T09:49:50;93565.44;;;3.78;86.83
41690;BME280;27372;42.658;23.256;2023-12-20T09:52:16;93572.63;;;3.82;86.38
41690;BME280;27372;42.658;23.256;2023-12-20T09:54:44;93563.59;;;4.18;86.18
41690;BME280;27372;42.658;23.256;2023-12-20T09:57:10;93551.41;;;4.26;84.76
41690;BME280;27372;42.658;23.256;2023-12-20T09:59:35;93558.75;;;4.56;84.26
41690;BME280;27372;42.658;23.256;2023-12-20T10:02:01;93552.94;;;4.60;82.49
41690;BME280;27372;42.658;23.256;2023-12-20T10:04:31;93550.59;;;4.39;83.94
41690;BME280;27372;42.658;23.256;2023-12-20T10:06:57;93542.56;;;4.54;84.28
41690;BME280;27372;42.658;23.256;2023-12-20T10:09:28;93554.41;;;4.36;85.65
41690;BME280;27372;42.658;23.256;2023-12-20T10:11:54;93549.28;;;4.75;83.81
41690;BME280;27372;42.658;23.256;2023-12-20T10:14:21;93537.00;;;5.34;82.19
41690;BME280;27372;42.658;23.256;2023-12-20T10:16:48;93541.59;;;6.65;77.19
41690;BME280;27372;42.658;23.256;2023-12-20T10:19:16;93527.97;;;7.61;72.07
41690;BME280;27372;42.658;23.256;2023-12-20T10:21:42;93526.13;;;8.52;66.82
41690;BME280;27372;42.658;23.256;2023-12-20T10:24:08;93515.81;;;8.86;64.77
41690;BME280;27372;42.658;23.256;2023-12-20T10:26:33;93521.81;;;9.39;61.53
41690;BME280;27372;42.658;23.256;2023-12-20T10:29:03;93516.19;;;9.47;60.66
41690;BME280;27372;42.658;23.256;2023-12-20T10:31:31;93517.66;;;9.72;59.32
41690;BME280;27372;42.658;23.256;2023-12-20T10:33:58;93485.31;;;9.67;59.75
41690;BME280;27372;42.658;23.256;2023-12-20T10:36:29;93493.41;;;10.16;58.15
41690;BME280;27372;42.658;23.256;2023-12-20T10:38:55;93484.50;;;10.17;57.65
41690;BME280;27372;42.658;23.256;2023-12-20T10:41:27;93484.72;;;10.50;56.71
41690;BME280;27372;42.658;23.256;2023-12-20T10:44:04;93487.81;;;10.86;55.06
41690;BME280;27372;42.658;23.256;2023-12-20T10:46:33;93485.66;;;11.27;53.35
41690;BME280;27372;42.658;23.256;2023-12-20T10:49:03;93481.13;;;11.00;53.56
41690;BME280;27372;42.658;23.256;2023-12-20T10:51:31;93464.84;;;11.86;52.37
41690;BME280;27372;42.658;23.256;2023-12-20T10:53:56;93474.94;;;11.34;52.81
41690;BME280;27372;42.658;23.256;2023-12-20T10:56:22;93465.25;;;11.40;52.70
41690;BME280;27372;42.658;23.256;2023-12-20T10:58:50;93465.97;;;11.62;53.43
41690;BME280;27372;42.658;23.256;2023-12-20T11:01:17;93456.72;;;10.78;53.79
41690;BME280;27372;42.658;23.256;2023-12-20T11:03:51;93456.34;;;10.91;54.57
41690;BME280;27372;42.658;23.256;2023-12-20T11:09:35;93442.78;;;10.77;54.74
41690;BME280;27372;42.658;23.256;2023-12-20T11:12:14;93441.69;;;11.83;55.30
41690;BME280;27372;42.658;23.256;2023-12-20T11:14:50;93440.00;;;11.11;54.55
41690;BME280;27372;42.658;23.256;2023-12-20T11:17:16;93428.34;;;12.32;53.62
41690;BME280;27372;42.658;23.256;2023-12-20T11:22:29;93420.47;;;13.06;50.65
41690;BME280;27372;42.658;23.256;2023-12-20T11:25:08;93412.66;;;13.47;49.84
41690;BME280;27372;42.658;23.256;2023-12-20T11:27:34;93404.50;;;13.85;47.03
41690;BME280;27372;42.658;23.256;2023-12-20T11:30:02;93394.13;;;14.14;52.35
41690;BME280;27372;42.658;23.256;2023-12-20T11:32:29;93389.28;;;14.58;48.69
41690;BME280;27372;42.658;23.256;2023-12-20T11:34:59;93383.97;;;14.68;47.54
41690;BME280;27372;42.658;23.256;2023-12-20T11:37:35;93379.91;;;13.95;47.19
41690;BME280;27372;42.658;23.256;2023-12-20T11:40:04;93369.56;;;14.24;47.57
41690;BME280;27372;42.658;23.256;2023-12-20T11:42:33;93365.59;;;14.32;47.10
41690;BME280;27372;42.658;23.256;2023-12-20T11:45:03;93366.91;;;14.35;46.99
41690;BME280;27372;42.658;23.256;2023-12-20T11:47:29;93361.84;;;14.43;45.79
41690;BME280;27372;42.658;23.256;2023-12-20T11:49:56;93357.69;;;14.17;46.02
41690;BME280;27372;42.658;23.256;2023-12-20T11:52:22;93344.53;;;14.11;46.47
41690;BME280;27372;42.658;23.256;2023-12-20T11:54:47;93346.19;;;13.71;46.77
41690;BME280;27372;42.658;23.256;2023-12-20T11:57:13;93341.94;;;13.65;47.53
41690;BME280;27372;42.658;23.256;2023-12-20T11:59:39;93331.91;;;13.36;46.82
41690;BME280;27372;42.658;23.256;2023-12-20T12:02:04;93325.31;;;13.39;47.75
41690;BME280;27372;42.658;23.256;2023-12-20T12:04:30;93316.41;;;13.45;48.72
41690;BME280;27372;42.658;23.256;2023-12-20T12:06:55;93303.97;;;13.25;47.36
41690;BME280;27372;42.658;23.256;2023-12-20T12:09:20;93308.47;;;13.24;48.84
41690;BME280;27372;42.658;23.256;2023-12-20T12:11:46;93300.78;;;13.79;48.12
41690;BME280;27372;42.658;23.256;2023-12-20T12:14:11;93298.22;;;14.29;45.10
41690;BME280;27372;42.658;23.256;2023-12-20T12:16:37;93310.00;;;14.58;45.48
41690;BME280;27372;42.658;23.256;2023-12-20T12:19:02;93283.97;;;14.86;44.39
41690;BME280;27372;42.658;23.256;2023-12-20T12:21:29;93294.34;;;14.06;45.20
41690;BME280;27372;42.658;23.256;2023-12-20T12:24:06;93289.16;;;13.91;45.08
41690;BME280;27372;42.658;23.256;2023-12-20T12:26:31;93286.69;;;14.10;45.84
41690;BME280;27372;42.658;23.256;2023-12-20T12:28:57;93288.81;;;14.13;45.28
41690;BME280;27372;42.658;23.256;2023-12-20T12:31:23;93283.22;;;14.20;45.30
41690;BME280;27372;42.658;23.256;2023-12-20T12:33:50;93274.34;;;14.00;45.82
41690;BME280;27372;42.658;23.256;2023-12-20T12:36:16;93294.97;;;13.82;46.41
41690;BME280;27372;42.658;23.256;2023-12-20T12:38:43;93282.13;;;14.31;45.19
41690;BME280;27372;42.658;23.256;2023-12-20T12:41:08;93287.25;;;14.02;44.98
41690;BME280;27372;42.658;23.256;2023-12-20T12:43:35;93291.06;;;14.35;44.39
41690;BME280;27372;42.658;23.256;2023-12-20T12:46:00;93288.97;;;14.37;44.50
41690;BME280;27372;42.658;23.256;2023-12-20T12:48:26;93279.00;;;14.24;44.28
41690;BME280;27372;42.658;23.256;2023-12-20T12:50:53;93277.97;;;14.14;44.79
41690;BME280;27372;42.658;23.256;2023-12-20T12:53:19;93287.03;;;13.88;45.45
41690;BME280;27372;42.658;23.256;2023-12-20T12:55:45;93272.06;;;13.11;46.46
41690;BME280;27372;42.658;23.256;2023-12-20T12:58:11;93278.91;;;12.91;47.67
41690;BME280;27372;42.658;23.256;2023-12-20T13:00:36;93278.63;;;12.93;48.04
41690;BME280;27372;42.658;23.256;2023-12-20T13:03:02;93281.53;;;12.81;47.26
41690;BME280;27372;42.658;23.256;2023-12-20T13:05:29;93270.75;;;12.98;48.26
41690;BME280;27372;42.658;23.256;2023-12-20T13:07:54;93268.13;;;12.98;47.66
41690;BME280;27372;42.658;23.256;2023-12-20T13:10:20;93271.69;;;12.35;48.54
41690;BME280;27372;42.658;23.256;2023-12-20T13:12:45;93269.16;;;11.92;50.56
41690;BME280;27372;42.658;23.256;2023-12-20T13:15:11;93268.31;;;11.38;51.12
41690;BME280;27372;42.658;23.256;2023-12-20T13:17:36;93268.34;;;10.73;52.73
41690;BME280;27372;42.658;23.256;2023-12-20T13:20:02;93262.97;;;10.35;54.73
41690;BME280;27372;42.658;23.256;2023-12-20T13:22:28;93271.16;;;9.94;56.98